sensor_id;sensor_type;location;lat;lon;timestamp;P1;durP1;ratioP1;P2;durP2;ratioP2
65691;SDS011;52411;52.716;6.696;2023-08-06T00:01:30;13.60;;;9.45;;
65691;SDS011;52411;52.716;6.696;2023-08-06T00:03:56;13.15;;;9.02;;
65691;SDS011;52411;52.716;6.696;2023-08-06T00:06:22;12.70;;;8.93;;
65691;SDS011;52411;52.716;6.696;2023-08-06T00:08:47;15.40;;;9.10;;
65691;SDS011;52411;52.716;6.696;2023-08-06T00:11:13;13.18;;;8.85;;
65691;SDS011;52411;52.716;6.696;2023-08-06T00:13:38;12.48;;;8.80;;
65691;SDS011;52411;52.716;6.696;2023-08-06T00:16:10;10.77;;;8.93;;
65691;SDS011;52411;52.716;6.696;2023-08-06T00:18:37;13.43;;;9.18;;
65691;SDS011;52411;52.716;6.696;2023-08-06T00:21:03;12.73;;;8.88;;
65691;SDS011;52411;52.716;6.696;2023-08-06T00:23:28;15.10;;;9.60;;
65691;SDS011;52411;52.716;6.696;2023-08-06T00:25:54;13.43;;;9.20;;
65691;SDS011;52411;52.716;6.696;2023-08-06T00:28:19;13.27;;;9.75;;
65691;SDS011;52411;52.716;6.696;2023-08-06T00:30:45;16.80;;;9.55;;
65691;SDS011;52411;52.716;6.696;2023-08-06T00:33:11;14.27;;;9.65;;
65691;SDS011;52411;52.716;6.696;2023-08-06T00:35:36;14.52;;;9.32;;
65691;SDS011;52411;52.716;6.696;2023-08-06T00:38:02;15.35;;;9.85;;
65691;SDS011;52411;52.716;6.696;2023-08-06T00:40:27;15.52;;;10.60;;
65691;SDS011;52411;52.716;6.696;2023-08-06T00:42:56;12.43;;;9.73;;
65691;SDS011;52411;52.716;6.696;2023-08-06T00:45:21;18.00;;;10.25;;
65691;SDS011;52411;52.716;6.696;2023-08-06T00:47:48;12.57;;;9.85;;
65691;SDS011;52411;52.716;6.696;2023-08-06T00:50:13;14.45;;;9.68;;
65691;SDS011;52411;52.716;6.696;2023-08-06T00:52:39;12.75;;;9.63;;
65691;SDS011;52411;52.716;6.696;2023-08-06T00:55:05;15.18;;;10.05;;
65691;SDS011;52411;52.716;6.696;2023-08-06T00:57:31;13.93;;;8.95;;
65691;SDS011;52411;52.716;6.696;2023-08-06T00:59:57;12.25;;;9.18;;
65691;SDS011;52411;52.716;6.696;2023-08-06T01:02:23;13.35;;;9.23;;
65691;SDS011;52411;52.716;6.696;2023-08-06T01:04:49;14.13;;;9.00;;
65691;SDS011;52411;52.716;6.696;2023-08-06T01:12:57;13.95;;;9.00;;
65691;SDS011;52411;52.716;6.696;2023-08-06T01:15:28;13.35;;;9.43;;
65691;SDS011;52411;52.716;6.696;2023-08-06T01:17:58;11.93;;;8.82;;
65691;SDS011;52411;52.716;6.696;2023-08-06T01:20:28;14.25;;;9.50;;
65691;SDS011;52411;52.716;6.696;2023-08-06T01:22:54;13.90;;;9.30;;
65691;SDS011;52411;52.716;6.696;2023-08-06T01:25:20;14.43;;;9.52;;
65691;SDS011;52411;52.716;6.696;2023-08-06T01:27:49;12.20;;;9.00;;
65691;SDS011;52411;52.716;6.696;2023-08-06T01:30:17;13.77;;;9.32;;
65691;SDS011;52411;52.716;6.696;2023-08-06T01:32:50;12.65;;;9.27;;
65691;SDS011;52411;52.716;6.696;2023-08-06T01:35:22;12.98;;;9.52;;
65691;SDS011;52411;52.716;6.696;2023-08-06T01:37:49;14.50;;;9.27;;
65691;SDS011;52411;52.716;6.696;2023-08-06T01:40:15;14.15;;;9.35;;
65691;SDS011;52411;52.716;6.696;2023-08-06T01:42:40;12.55;;;8.88;;
65691;SDS011;52411;52.716;6.696;2023-08-06T01:45:06;13.95;;;9.35;;
65691;SDS011;52411;52.716;6.696;2023-08-06T01:47:32;11.90;;;9.27;;
65691;SDS011;52411;52.716;6.696;2023-08-06T01:49:58;13.18;;;9.35;;
65691;SDS011;52411;52.716;6.696;2023-08-06T01:52:24;13.32;;;9.82;;
65691;SDS011;52411;52.716;6.696;2023-08-06T01:54:49;12.65;;;9.63;;
65691;SDS011;52411;52.716;6.696;2023-08-06T01:57:15;17.10;;;10.52;;
65691;SDS011;52411;52.716;6.696;2023-08-06T01:59:41;16.67;;;9.73;;
65691;SDS011;52411;52.716;6.696;2023-08-06T02:02:06;14.63;;;9.80;;
65691;SDS011;52411;52.716;6.696;2023-08-06T02:04:32;12.88;;;9.73;;
65691;SDS011;52411;52.716;6.696;2023-08-06T02:06:57;15.35;;;9.95;;
65691;SDS011;52411;52.716;6.696;2023-08-06T02:09:23;14.65;;;9.65;;
65691;SDS011;52411;52.716;6.696;2023-08-06T02:11:49;13.77;;;10.00;;
65691;SDS011;52411;52.716;6.696;2023-08-06T02:14:14;13.15;;;9.38;;
65691;SDS011;52411;52.716;6.696;2023-08-06T02:16:40;13.15;;;8.90;;
65691;SDS011;52411;52.716;6.696;2023-08-06T02:19:05;12.65;;;9.05;;
65691;SDS011;52411;52.716;6.696;2023-08-06T02:21:31;14.18;;;9.85;;
65691;SDS011;52411;52.716;6.696;2023-08-06T02:23:56;14.52;;;9.60;;
65691;SDS011;52411;52.716;6.696;2023-08-06T02:26:22;15.40;;;9.23;;
65691;SDS011;52411;52.716;6.696;2023-08-06T02:28:48;11.95;;;9.20;;
65691;SDS011;52411;52.716;6.696;2023-08-06T02:31:14;12.48;;;8.93;;
65691;SDS011;52411;52.716;6.696;2023-08-06T02:33:39;13.88;;;9.75;;
65691;SDS011;52411;52.716;6.696;2023-08-06T02:36:05;14.80;;;8.88;;
65691;SDS011;52411;52.716;6.696;2023-08-06T02:38:31;13.45;;;9.38;;
65691;SDS011;52411;52.716;6.696;2023-08-06T02:40:57;12.50;;;8.88;;
65691;SDS011;52411;52.716;6.696;2023-08-06T02:43:22;15.05;;;10.18;;
65691;SDS011;52411;52.716;6.696;2023-08-06T02:45:48;13.38;;;9.38;;
65691;SDS011;52411;52.716;6.696;2023-08-06T02:48:14;15.73;;;10.02;;
65691;SDS011;52411;52.716;6.696;2023-08-06T02:50:40;13.32;;;10.15;;
65691;SDS011;52411;52.716;6.696;2023-08-06T02:53:06;13.30;;;9.80;;
65691;SDS011;52411;52.716;6.696;2023-08-06T02:55:33;13.05;;;9.93;;
65691;SDS011;52411;52.716;6.696;2023-08-06T02:57:59;13.80;;;9.68;;
65691;SDS011;52411;52.716;6.696;2023-08-06T03:00:26;15.10;;;10.73;;
65691;SDS011;52411;52.716;6.696;2023-08-06T03:02:51;13.20;;;9.98;;
65691;SDS011;52411;52.716;6.696;2023-08-06T03:05:17;15.50;;;10.43;;
65691;SDS011;52411;52.716;6.696;2023-08-06T03:07:43;14.38;;;10.43;;
65691;SDS011;52411;52.716;6.696;2023-08-06T03:10:08;18.13;;;10.35;;
65691;SDS011;52411;52.716;6.696;2023-08-06T03:12:34;16.60;;;10.40;;
65691;SDS011;52411;52.716;6.696;2023-08-06T03:15:00;14.88;;;10.75;;
65691;SDS011;52411;52.716;6.696;2023-08-06T03:17:25;14.63;;;10.93;;
65691;SDS011;52411;52.716;6.696;2023-08-06T03:19:51;15.45;;;9.77;;
65691;SDS011;52411;52.716;6.696;2023-08-06T03:22:17;16.80;;;10.10;;
65691;SDS011;52411;52.716;6.696;2023-08-06T03:24:42;15.77;;;10.93;;
65691;SDS011;52411;52.716;6.696;2023-08-06T03:27:08;16.42;;;11.23;;
65691;SDS011;52411;52.716;6.696;2023-08-06T03:29:33;15.48;;;10.68;;
65691;SDS011;52411;52.716;6.696;2023-08-06T03:31:59;16.67;;;10.80;;
65691;SDS011;52411;52.716;6.696;2023-08-06T03:34:24;17.98;;;10.80;;
65691;SDS011;52411;52.716;6.696;2023-08-06T03:36:50;16.23;;;11.20;;
65691;SDS011;52411;52.716;6.696;2023-08-06T03:39:16;16.73;;;11.13;;
65691;SDS011;52411;52.716;6.696;2023-08-06T03:41:41;16.25;;;11.05;;
65691;SDS011;52411;52.716;6.696;2023-08-06T03:44:07;18.63;;;11.63;;
65691;SDS011;52411;52.716;6.696;2023-08-06T03:46:32;15.85;;;11.05;;
65691;SDS011;52411;52.716;6.696;2023-08-06T03:48:59;15.45;;;11.07;;
65691;SDS011;52411;52.716;6.696;2023-08-06T03:51:25;15.52;;;10.98;;
65691;SDS011;52411;52.716;6.696;2023-08-06T03:53:51;16.25;;;11.35;;
65691;SDS011;52411;52.716;6.696;2023-08-06T03:56:16;17.38;;;11.98;;
65691;SDS011;52411;52.716;6.696;2023-08-06T03:58:42;20.15;;;11.90;;
65691;SDS011;52411;52.716;6.696;2023-08-06T04:01:07;17.83;;;11.70;;
65691;SDS011;52411;52.716;6.696;2023-08-06T04:03:33;15.35;;;11.18;;
65691;SDS011;52411;52.716;6.696;2023-08-06T04:05:59;19.58;;;12.05;;
65691;SDS011;52411;52.716;6.696;2023-08-06T04:08:26;17.00;;;11.45;;
65691;SDS011;52411;52.716;6.696;2023-08-06T04:10:52;16.25;;;11.23;;
65691;SDS011;52411;52.716;6.696;2023-08-06T04:13:18;16.80;;;11.55;;
65691;SDS011;52411;52.716;6.696;2023-08-06T04:15:44;17.02;;;11.32;;
65691;SDS011;52411;52.716;6.696;2023-08-06T04:18:09;16.60;;;11.57;;
65691;SDS011;52411;52.716;6.696;2023-08-06T04:20:41;14.85;;;11.52;;
65691;SDS011;52411;52.716;6.696;2023-08-06T04:23:08;15.60;;;11.00;;
65691;SDS011;52411;52.716;6.696;2023-08-06T04:25:34;17.85;;;11.25;;
65691;SDS011;52411;52.716;6.696;2023-08-06T04:27:59;19.00;;;11.55;;
65691;SDS011;52411;52.716;6.696;2023-08-06T04:30:25;22.75;;;11.73;;
65691;SDS011;52411;52.716;6.696;2023-08-06T04:32:50;18.13;;;11.40;;
65691;SDS011;52411;52.716;6.696;2023-08-06T04:35:16;16.17;;;11.80;;
65691;SDS011;52411;52.716;6.696;2023-08-06T04:37:42;20.08;;;11.35;;
65691;SDS011;52411;52.716;6.696;2023-08-06T04:40:07;15.57;;;11.18;;
65691;SDS011;52411;52.716;6.696;2023-08-06T04:42:33;17.60;;;11.07;;
65691;SDS011;52411;52.716;6.696;2023-08-06T04:45:00;20.10;;;11.75;;
65691;SDS011;52411;52.716;6.696;2023-08-06T04:47:26;14.68;;;11.32;;
65691;SDS011;52411;52.716;6.696;2023-08-06T04:49:52;18.50;;;11.60;;
65691;SDS011;52411;52.716;6.696;2023-08-06T04:52:18;18.45;;;11.80;;
65691;SDS011;52411;52.716;6.696;2023-08-06T04:54:44;17.02;;;12.07;;
65691;SDS011;52411;52.716;6.696;2023-08-06T04:57:10;17.77;;;12.07;;
65691;SDS011;52411;52.716;6.696;2023-08-06T04:59:35;17.63;;;12.45;;
65691;SDS011;52411;52.716;6.696;2023-08-06T05:02:01;18.95;;;12.40;;
65691;SDS011;52411;52.716;6.696;2023-08-06T05:04:27;17.85;;;12.57;;
65691;SDS011;52411;52.716;6.696;2023-08-06T05:06:53;17.58;;;13.02;;
65691;SDS011;52411;52.716;6.696;2023-08-06T05:09:18;23.38;;;13.10;;
65691;SDS011;52411;52.716;6.696;2023-08-06T05:11:46;17.40;;;12.88;;
65691;SDS011;52411;52.716;6.696;2023-08-06T05:14:12;19.35;;;12.65;;
65691;SDS011;52411;52.716;6.696;2023-08-06T05:16:37;20.20;;;12.70;;
65691;SDS011;52411;52.716;6.696;2023-08-06T05:19:03;18.20;;;12.93;;
65691;SDS011;52411;52.716;6.696;2023-08-06T05:21:28;20.48;;;12.57;;
65691;SDS011;52411;52.716;6.696;2023-08-06T05:23:54;17.92;;;12.88;;
65691;SDS011;52411;52.716;6.696;2023-08-06T05:26:20;18.60;;;12.00;;
65691;SDS011;52411;52.716;6.696;2023-08-06T05:28:45;16.30;;;12.15;;
65691;SDS011;52411;52.716;6.696;2023-08-06T05:31:11;16.35;;;12.35;;
65691;SDS011;52411;52.716;6.696;2023-08-06T05:33:37;15.68;;;11.90;;
65691;SDS011;52411;52.716;6.696;2023-08-06T05:36:03;19.23;;;12.20;;
65691;SDS011;52411;52.716;6.696;2023-08-06T05:38:29;16.70;;;12.27;;
65691;SDS011;52411;52.716;6.696;2023-08-06T05:40:55;18.17;;;12.50;;
65691;SDS011;52411;52.716;6.696;2023-08-06T05:43:24;20.75;;;13.50;;
65691;SDS011;52411;52.716;6.696;2023-08-06T05:45:49;18.15;;;12.90;;
65691;SDS011;52411;52.716;6.696;2023-08-06T05:48:15;19.10;;;13.27;;
65691;SDS011;52411;52.716;6.696;2023-08-06T05:50:41;16.98;;;13.15;;
65691;SDS011;52411;52.716;6.696;2023-08-06T05:53:07;17.33;;;12.88;;
65691;SDS011;52411;52.716;6.696;2023-08-06T05:55:33;18.33;;;13.38;;
65691;SDS011;52411;52.716;6.696;2023-08-06T05:57:59;19.02;;;13.82;;
65691;SDS011;52411;52.716;6.696;2023-08-06T06:00:25;20.45;;;13.60;;
65691;SDS011;52411;52.716;6.696;2023-08-06T06:02:50;21.48;;;14.57;;
65691;SDS011;52411;52.716;6.696;2023-08-06T06:05:16;17.52;;;13.88;;
65691;SDS011;52411;52.716;6.696;2023-08-06T06:07:42;19.65;;;14.48;;
65691;SDS011;52411;52.716;6.696;2023-08-06T06:10:07;20.67;;;14.95;;
65691;SDS011;52411;52.716;6.696;2023-08-06T06:12:33;21.73;;;15.40;;
65691;SDS011;52411;52.716;6.696;2023-08-06T06:14:59;24.27;;;16.02;;
65691;SDS011;52411;52.716;6.696;2023-08-06T06:17:26;20.58;;;15.45;;
65691;SDS011;52411;52.716;6.696;2023-08-06T06:19:52;24.80;;;17.30;;
65691;SDS011;52411;52.716;6.696;2023-08-06T06:22:17;33.95;;;17.48;;
65691;SDS011;52411;52.716;6.696;2023-08-06T06:24:43;25.65;;;16.80;;
65691;SDS011;52411;52.716;6.696;2023-08-06T06:27:09;23.88;;;17.33;;
65691;SDS011;52411;52.716;6.696;2023-08-06T06:29:34;28.63;;;17.48;;
65691;SDS011;52411;52.716;6.696;2023-08-06T06:32:00;27.15;;;18.58;;
65691;SDS011;52411;52.716;6.696;2023-08-06T06:34:26;26.38;;;18.20;;
65691;SDS011;52411;52.716;6.696;2023-08-06T06:36:51;25.42;;;18.63;;
65691;SDS011;52411;52.716;6.696;2023-08-06T06:39:17;26.73;;;18.70;;
65691;SDS011;52411;52.716;6.696;2023-08-06T06:41:43;31.48;;;18.25;;
65691;SDS011;52411;52.716;6.696;2023-08-06T06:44:09;25.73;;;17.77;;
65691;SDS011;52411;52.716;6.696;2023-08-06T06:46:34;25.73;;;18.17;;
65691;SDS011;52411;52.716;6.696;2023-08-06T06:49:00;27.90;;;17.42;;
65691;SDS011;52411;52.716;6.696;2023-08-06T06:51:26;28.17;;;18.10;;
65691;SDS011;52411;52.716;6.696;2023-08-06T06:53:51;25.05;;;17.13;;
65691;SDS011;52411;52.716;6.696;2023-08-06T06:56:17;24.73;;;16.70;;
65691;SDS011;52411;52.716;6.696;2023-08-06T06:58:42;28.27;;;16.27;;
65691;SDS011;52411;52.716;6.696;2023-08-06T07:01:08;24.27;;;16.30;;
65691;SDS011;52411;52.716;6.696;2023-08-06T07:03:36;21.83;;;16.10;;
65691;SDS011;52411;52.716;6.696;2023-08-06T07:06:02;22.00;;;15.48;;
65691;SDS011;52411;52.716;6.696;2023-08-06T07:08:28;21.88;;;14.88;;
65691;SDS011;52411;52.716;6.696;2023-08-06T07:11:04;20.08;;;14.93;;
65691;SDS011;52411;52.716;6.696;2023-08-06T07:13:30;19.88;;;14.93;;
65691;SDS011;52411;52.716;6.696;2023-08-06T07:15:57;18.90;;;13.73;;
65691;SDS011;52411;52.716;6.696;2023-08-06T07:18:23;21.77;;;14.85;;
65691;SDS011;52411;52.716;6.696;2023-08-06T07:20:52;19.00;;;14.32;;
65691;SDS011;52411;52.716;6.696;2023-08-06T07:23:22;17.05;;;13.85;;
65691;SDS011;52411;52.716;6.696;2023-08-06T07:25:49;19.75;;;13.73;;
65691;SDS011;52411;52.716;6.696;2023-08-06T07:28:15;18.45;;;13.73;;
65691;SDS011;52411;52.716;6.696;2023-08-06T07:30:41;18.63;;;13.52;;
65691;SDS011;52411;52.716;6.696;2023-08-06T07:33:08;15.85;;;13.48;;
65691;SDS011;52411;52.716;6.696;2023-08-06T07:35:34;16.92;;;13.00;;
65691;SDS011;52411;52.716;6.696;2023-08-06T07:38:00;18.35;;;13.20;;
65691;SDS011;52411;52.716;6.696;2023-08-06T07:40:27;16.52;;;12.63;;
65691;SDS011;52411;52.716;6.696;2023-08-06T07:42:53;15.65;;;13.15;;
65691;SDS011;52411;52.716;6.696;2023-08-06T07:45:19;15.88;;;12.93;;
65691;SDS011;52411;52.716;6.696;2023-08-06T07:47:45;14.70;;;12.30;;
65691;SDS011;52411;52.716;6.696;2023-08-06T07:50:10;14.80;;;12.50;;
65691;SDS011;52411;52.716;6.696;2023-08-06T07:52:37;16.50;;;12.63;;
65691;SDS011;52411;52.716;6.696;2023-08-06T07:55:02;16.00;;;12.68;;
65691;SDS011;52411;52.716;6.696;2023-08-06T07:57:32;14.75;;;12.30;;
65691;SDS011;52411;52.716;6.696;2023-08-06T07:59:59;15.27;;;12.10;;
65691;SDS011;52411;52.716;6.696;2023-08-06T08:02:25;15.30;;;12.45;;
65691;SDS011;52411;52.716;6.696;2023-08-06T08:04:51;17.02;;;12.25;;
65691;SDS011;52411;52.716;6.696;2023-08-06T08:07:17;18.88;;;12.13;;
65691;SDS011;52411;52.716;6.696;2023-08-06T08:09:43;14.95;;;11.75;;
65691;SDS011;52411;52.716;6.696;2023-08-06T08:12:09;15.07;;;12.45;;
65691;SDS011;52411;52.716;6.696;2023-08-06T08:14:34;18.73;;;12.20;;
65691;SDS011;52411;52.716;6.696;2023-08-06T08:17:02;17.52;;;11.77;;
65691;SDS011;52411;52.716;6.696;2023-08-06T08:19:28;16.08;;;12.30;;
65691;SDS011;52411;52.716;6.696;2023-08-06T08:21:54;17.25;;;11.52;;
65691;SDS011;52411;52.716;6.696;2023-08-06T08:24:20;14.15;;;11.40;;
65691;SDS011;52411;52.716;6.696;2023-08-06T08:26:48;16.63;;;11.23;;
65691;SDS011;52411;52.716;6.696;2023-08-06T08:29:15;14.52;;;12.15;;
65691;SDS011;52411;52.716;6.696;2023-08-06T08:31:40;12.52;;;10.73;;
65691;SDS011;52411;52.716;6.696;2023-08-06T08:34:06;14.65;;;11.23;;
65691;SDS011;52411;52.716;6.696;2023-08-06T08:36:32;15.73;;;11.80;;
65691;SDS011;52411;52.716;6.696;2023-08-06T08:38:57;14.27;;;11.48;;
65691;SDS011;52411;52.716;6.696;2023-08-06T08:41:23;14.30;;;11.43;;
65691;SDS011;52411;52.716;6.696;2023-08-06T08:43:49;14.63;;;11.70;;
65691;SDS011;52411;52.716;6.696;2023-08-06T08:46:19;12.32;;;10.88;;
65691;SDS011;52411;52.716;6.696;2023-08-06T08:48:45;12.10;;;10.80;;
65691;SDS011;52411;52.716;6.696;2023-08-06T08:51:11;14.95;;;10.30;;
65691;SDS011;52411;52.716;6.696;2023-08-06T08:53:38;13.02;;;11.20;;
65691;SDS011;52411;52.716;6.696;2023-08-06T08:56:04;13.57;;;10.70;;
65691;SDS011;52411;52.716;6.696;2023-08-06T08:58:33;11.88;;;10.50;;
65691;SDS011;52411;52.716;6.696;2023-08-06T09:01:02;12.25;;;10.63;;
65691;SDS011;52411;52.716;6.696;2023-08-06T09:03:28;12.35;;;10.13;;
65691;SDS011;52411;52.716;6.696;2023-08-06T09:05:54;11.52;;;10.05;;
65691;SDS011;52411;52.716;6.696;2023-08-06T09:08:27;11.10;;;9.85;;
65691;SDS011;52411;52.716;6.696;2023-08-06T09:10:57;12.43;;;9.55;;
65691;SDS011;52411;52.716;6.696;2023-08-06T09:13:24;10.82;;;9.40;;
65691;SDS011;52411;52.716;6.696;2023-08-06T09:15:50;12.73;;;10.13;;
65691;SDS011;52411;52.716;6.696;2023-08-06T09:18:21;11.90;;;10.15;;
65691;SDS011;52411;52.716;6.696;2023-08-06T09:20:52;12.75;;;9.75;;
65691;SDS011;52411;52.716;6.696;2023-08-06T09:23:17;10.48;;;9.38;;
65691;SDS011;52411;52.716;6.696;2023-08-06T09:25:43;11.18;;;9.60;;
65691;SDS011;52411;52.716;6.696;2023-08-06T09:28:08;10.27;;;9.05;;
65691;SDS011;52411;52.716;6.696;2023-08-06T09:30:35;9.57;;;8.32;;
65691;SDS011;52411;52.716;6.696;2023-08-06T09:33:02;9.55;;;8.57;;
65691;SDS011;52411;52.716;6.696;2023-08-06T09:35:29;10.82;;;8.55;;
65691;SDS011;52411;52.716;6.696;2023-08-06T09:37:55;10.63;;;9.07;;
65691;SDS011;52411;52.716;6.696;2023-08-06T09:40:32;10.50;;;9.40;;
65691;SDS011;52411;52.716;6.696;2023-08-06T09:42:58;10.38;;;8.60;;
65691;SDS011;52411;52.716;6.696;2023-08-06T09:45:31;9.60;;;8.13;;
65691;SDS011;52411;52.716;6.696;2023-08-06T09:48:07;11.70;;;8.20;;
65691;SDS011;52411;52.716;6.696;2023-08-06T09:50:37;10.02;;;7.22;;
65691;SDS011;52411;52.716;6.696;2023-08-06T09:53:04;8.73;;;7.10;;
65691;SDS011;52411;52.716;6.696;2023-08-06T09:55:30;9.77;;;7.55;;
65691;SDS011;52411;52.716;6.696;2023-08-06T09:57:57;9.20;;;7.93;;
65691;SDS011;52411;52.716;6.696;2023-08-06T10:00:24;10.85;;;7.53;;
65691;SDS011;52411;52.716;6.696;2023-08-06T10:02:51;10.13;;;8.20;;
65691;SDS011;52411;52.716;6.696;2023-08-06T10:05:21;9.73;;;7.77;;
65691;SDS011;52411;52.716;6.696;2023-08-06T10:07:47;9.07;;;7.82;;
65691;SDS011;52411;52.716;6.696;2023-08-06T10:10:16;8.63;;;7.18;;
65691;SDS011;52411;52.716;6.696;2023-08-06T10:12:46;10.65;;;7.50;;
65691;SDS011;52411;52.716;6.696;2023-08-06T10:15:16;7.93;;;6.68;;
65691;SDS011;52411;52.716;6.696;2023-08-06T10:17:46;7.43;;;6.63;;
65691;SDS011;52411;52.716;6.696;2023-08-06T10:20:14;7.10;;;6.05;;
65691;SDS011;52411;52.716;6.696;2023-08-06T10:22:43;9.23;;;6.28;;
65691;SDS011;52411;52.716;6.696;2023-08-06T10:25:10;7.25;;;6.38;;
65691;SDS011;52411;52.716;6.696;2023-08-06T10:27:53;7.13;;;6.03;;
65691;SDS011;52411;52.716;6.696;2023-08-06T10:30:26;7.15;;;6.18;;
65691;SDS011;52411;52.716;6.696;2023-08-06T10:33:03;6.47;;;5.55;;
65691;SDS011;52411;52.716;6.696;2023-08-06T10:35:45;6.65;;;5.95;;
65691;SDS011;52411;52.716;6.696;2023-08-06T10:40:47;8.48;;;6.50;;
65691;SDS011;52411;52.716;6.696;2023-08-06T10:45:55;7.93;;;5.90;;
65691;SDS011;52411;52.716;6.696;2023-08-06T10:50:56;8.15;;;6.22;;
65691;SDS011;52411;52.716;6.696;2023-08-06T10:53:22;7.25;;;5.90;;
65691;SDS011;52411;52.716;6.696;2023-08-06T10:55:48;7.30;;;5.88;;
65691;SDS011;52411;52.716;6.696;2023-08-06T10:58:15;6.93;;;5.93;;
65691;SDS011;52411;52.716;6.696;2023-08-06T11:00:41;8.73;;;5.75;;
65691;SDS011;52411;52.716;6.696;2023-08-06T11:03:07;7.78;;;5.40;;
65691;SDS011;52411;52.716;6.696;2023-08-06T11:05:34;6.82;;;6.07;;
65691;SDS011;52411;52.716;6.696;2023-08-06T11:08:00;7.53;;;6.57;;
65691;SDS011;52411;52.716;6.696;2023-08-06T11:10:26;7.53;;;6.30;;
65691;SDS011;52411;52.716;6.696;2023-08-06T11:12:52;8.50;;;6.57;;
65691;SDS011;52411;52.716;6.696;2023-08-06T11:15:19;6.90;;;5.43;;
65691;SDS011;52411;52.716;6.696;2023-08-06T11:17:46;6.72;;;5.68;;
65691;SDS011;52411;52.716;6.696;2023-08-06T11:20:12;7.65;;;5.88;;
65691;SDS011;52411;52.716;6.696;2023-08-06T11:22:38;6.60;;;5.65;;
65691;SDS011;52411;52.716;6.696;2023-08-06T11:25:04;6.15;;;5.25;;
65691;SDS011;52411;52.716;6.696;2023-08-06T11:27:31;6.22;;;5.55;;
65691;SDS011;52411;52.716;6.696;2023-08-06T11:29:57;6.63;;;4.80;;
65691;SDS011;52411;52.716;6.696;2023-08-06T11:32:22;7.18;;;4.80;;
65691;SDS011;52411;52.716;6.696;2023-08-06T11:34:48;8.25;;;5.70;;
65691;SDS011;52411;52.716;6.696;2023-08-06T11:37:14;6.43;;;4.97;;
65691;SDS011;52411;52.716;6.696;2023-08-06T11:39:41;6.05;;;5.43;;
65691;SDS011;52411;52.716;6.696;2023-08-06T11:42:11;7.35;;;5.75;;
65691;SDS011;52411;52.716;6.696;2023-08-06T11:44:37;6.45;;;5.03;;
65691;SDS011;52411;52.716;6.696;2023-08-06T11:47:11;6.35;;;5.40;;
65691;SDS011;52411;52.716;6.696;2023-08-06T11:52:10;7.60;;;6.90;;
65691;SDS011;52411;52.716;6.696;2023-08-06T11:54:51;7.55;;;6.68;;
65691;SDS011;52411;52.716;6.696;2023-08-06T11:57:24;7.05;;;6.35;;
65691;SDS011;52411;52.716;6.696;2023-08-06T11:59:50;7.18;;;6.47;;
65691;SDS011;52411;52.716;6.696;2023-08-06T12:02:16;11.68;;;6.20;;
65691;SDS011;52411;52.716;6.696;2023-08-06T12:05:01;6.55;;;4.03;;
65691;SDS011;52411;52.716;6.696;2023-08-06T12:07:30;3.38;;;2.63;;
65691;SDS011;52411;52.716;6.696;2023-08-06T12:09:56;2.97;;;2.47;;
65691;SDS011;52411;52.716;6.696;2023-08-06T12:12:23;4.03;;;2.30;;
65691;SDS011;52411;52.716;6.696;2023-08-06T12:14:49;3.08;;;1.95;;
65691;SDS011;52411;52.716;6.696;2023-08-06T12:17:15;4.07;;;2.13;;
65691;SDS011;52411;52.716;6.696;2023-08-06T12:19:40;3.78;;;2.00;;
65691;SDS011;52411;52.716;6.696;2023-08-06T12:22:06;2.40;;;2.08;;
65691;SDS011;52411;52.716;6.696;2023-08-06T12:24:32;3.88;;;2.60;;
65691;SDS011;52411;52.716;6.696;2023-08-06T12:26:57;5.35;;;2.85;;
65691;SDS011;52411;52.716;6.696;2023-08-06T12:29:24;5.38;;;3.30;;
65691;SDS011;52411;52.716;6.696;2023-08-06T12:31:50;4.95;;;3.30;;
65691;SDS011;52411;52.716;6.696;2023-08-06T12:34:16;3.50;;;3.08;;
65691;SDS011;52411;52.716;6.696;2023-08-06T12:36:41;6.72;;;3.50;;
65691;SDS011;52411;52.716;6.696;2023-08-06T12:39:07;4.55;;;3.33;;
65691;SDS011;52411;52.716;6.696;2023-08-06T12:41:33;4.93;;;3.38;;
65691;SDS011;52411;52.716;6.696;2023-08-06T12:43:58;8.57;;;3.70;;
65691;SDS011;52411;52.716;6.696;2023-08-06T12:46:24;5.68;;;3.47;;
65691;SDS011;52411;52.716;6.696;2023-08-06T12:48:49;5.72;;;3.70;;
65691;SDS011;52411;52.716;6.696;2023-08-06T12:51:15;5.72;;;4.18;;
65691;SDS011;52411;52.716;6.696;2023-08-06T12:53:41;5.10;;;3.70;;
65691;SDS011;52411;52.716;6.696;2023-08-06T12:56:07;5.53;;;3.67;;
65691;SDS011;52411;52.716;6.696;2023-08-06T12:58:32;7.00;;;3.90;;
65691;SDS011;52411;52.716;6.696;2023-08-06T13:00:58;5.53;;;3.67;;
65691;SDS011;52411;52.716;6.696;2023-08-06T13:03:24;5.03;;;3.80;;
65691;SDS011;52411;52.716;6.696;2023-08-06T13:05:49;5.30;;;3.97;;
65691;SDS011;52411;52.716;6.696;2023-08-06T13:08:15;5.72;;;3.95;;
65691;SDS011;52411;52.716;6.696;2023-08-06T13:10:42;4.22;;;3.30;;
65691;SDS011;52411;52.716;6.696;2023-08-06T13:13:08;5.22;;;3.38;;
65691;SDS011;52411;52.716;6.696;2023-08-06T13:15:35;4.47;;;3.33;;
65691;SDS011;52411;52.716;6.696;2023-08-06T13:18:01;6.20;;;3.90;;
65691;SDS011;52411;52.716;6.696;2023-08-06T13:20:26;6.50;;;4.22;;
65691;SDS011;52411;52.716;6.696;2023-08-06T13:22:55;6.53;;;4.30;;
65691;SDS011;52411;52.716;6.696;2023-08-06T13:25:20;5.43;;;4.15;;
65691;SDS011;52411;52.716;6.696;2023-08-06T13:27:46;6.65;;;3.80;;
65691;SDS011;52411;52.716;6.696;2023-08-06T13:30:12;6.32;;;3.72;;
65691;SDS011;52411;52.716;6.696;2023-08-06T13:32:38;5.80;;;3.88;;
65691;SDS011;52411;52.716;6.696;2023-08-06T13:35:04;4.25;;;3.47;;
65691;SDS011;52411;52.716;6.696;2023-08-06T13:37:30;6.82;;;3.97;;
65691;SDS011;52411;52.716;6.696;2023-08-06T13:39:55;7.57;;;4.13;;
65691;SDS011;52411;52.716;6.696;2023-08-06T13:42:21;5.43;;;4.38;;
65691;SDS011;52411;52.716;6.696;2023-08-06T13:44:47;6.68;;;4.50;;
65691;SDS011;52411;52.716;6.696;2023-08-06T13:47:12;5.60;;;4.20;;
65691;SDS011;52411;52.716;6.696;2023-08-06T13:49:38;5.05;;;4.00;;
65691;SDS011;52411;52.716;6.696;2023-08-06T13:52:04;5.22;;;4.20;;
65691;SDS011;52411;52.716;6.696;2023-08-06T13:54:29;7.38;;;4.35;;
65691;SDS011;52411;52.716;6.696;2023-08-06T13:56:55;5.90;;;4.38;;
65691;SDS011;52411;52.716;6.696;2023-08-06T13:59:21;5.53;;;4.60;;
65691;SDS011;52411;52.716;6.696;2023-08-06T14:01:49;5.20;;;4.38;;
65691;SDS011;52411;52.716;6.696;2023-08-06T14:04:15;5.22;;;4.45;;
65691;SDS011;52411;52.716;6.696;2023-08-06T14:06:40;5.13;;;4.50;;
65691;SDS011;52411;52.716;6.696;2023-08-06T14:09:06;7.22;;;5.60;;
65691;SDS011;52411;52.716;6.696;2023-08-06T14:11:32;6.03;;;4.95;;
65691;SDS011;52411;52.716;6.696;2023-08-06T14:13:58;6.15;;;4.57;;
65691;SDS011;52411;52.716;6.696;2023-08-06T14:16:25;7.43;;;5.00;;
65691;SDS011;52411;52.716;6.696;2023-08-06T14:18:50;6.63;;;5.30;;
65691;SDS011;52411;52.716;6.696;2023-08-06T14:21:16;6.40;;;5.20;;
65691;SDS011;52411;52.716;6.696;2023-08-06T14:23:42;7.18;;;5.40;;
65691;SDS011;52411;52.716;6.696;2023-08-06T14:26:07;7.10;;;5.55;;
65691;SDS011;52411;52.716;6.696;2023-08-06T14:28:35;6.05;;;5.10;;
65691;SDS011;52411;52.716;6.696;2023-08-06T14:31:01;8.18;;;5.15;;
65691;SDS011;52411;52.716;6.696;2023-08-06T14:33:27;7.13;;;5.43;;
65691;SDS011;52411;52.716;6.696;2023-08-06T14:35:52;5.97;;;5.32;;
65691;SDS011;52411;52.716;6.696;2023-08-06T14:38:18;6.72;;;5.55;;
65691;SDS011;52411;52.716;6.696;2023-08-06T14:40:44;6.78;;;5.50;;
65691;SDS011;52411;52.716;6.696;2023-08-06T14:43:09;7.40;;;5.32;;
65691;SDS011;52411;52.716;6.696;2023-08-06T14:45:38;7.72;;;5.65;;